createdAt,value
2023-04-06T00:04:04.992Z,10.30
2023-04-06T00:09:09.318Z,10.40
2023-04-06T00:14:14.746Z,10.05
2023-04-06T00:19:20.355Z,9.82
2023-04-06T00:24:24.403Z,9.15
2023-04-06T00:29:28.355Z,10.95
2023-04-06T00:34:33.863Z,9.70
2023-04-06T00:39:37.867Z,9.30
2023-04-06T00:44:41.938Z,9.02
2023-04-06T00:49:47.642Z,8.18
2023-04-06T00:54:51.694Z,9.35
2023-04-06T00:59:58.390Z,7.53
2023-04-06T01:05:04.344Z,7.90
2023-04-06T01:10:26.742Z,8.30
2023-04-06T01:15:40.249Z,7.93
2023-04-06T01:20:47.757Z,7.60
2023-04-06T01:25:54.944Z,7.20
2023-04-06T01:30:59.796Z,6.47
2023-04-06T01:36:26.721Z,6.80
2023-04-06T01:41:40.657Z,5.45
2023-04-06T01:46:44.974Z,6.90
2023-04-06T01:51:55.451Z,6.47
2023-04-06T01:57:01.375Z,6.20
2023-04-06T02:02:14.040Z,5.93
2023-04-06T02:07:23.744Z,6.50
2023-04-06T02:12:29.356Z,6.50
2023-04-06T02:17:33.532Z,6.43
2023-04-06T02:22:37.771Z,6.72
2023-04-06T02:27:43.137Z,7.15
2023-04-06T02:32:47.212Z,6.63
2023-04-06T02:37:51.621Z,7.10
2023-04-06T02:42:57.100Z,7.47
2023-04-06T02:48:07.595Z,7.15
2023-04-06T02:53:11.912Z,8.45
2023-04-06T02:58:18.872Z,7.95
2023-04-06T03:03:30.095Z,9.65
2023-04-06T03:08:38.633Z,9.90
2023-04-06T03:13:48.150Z,8.93
2023-04-06T03:18:53.605Z,10.55
2023-04-06T03:23:58.847Z,9.30
2023-04-06T03:29:06.370Z,8.98
2023-04-06T03:34:11.228Z,9.60
2023-04-06T03:39:15.423Z,10.48
2023-04-06T03:49:26.551Z,9.87
2023-04-06T03:54:31.575Z,8.43
2023-04-06T03:59:37.317Z,9.07
2023-04-06T04:09:45.629Z,8.65
2023-04-06T04:14:51.142Z,9.18
2023-04-06T04:19:55.203Z,8.75
2023-04-06T04:24:59.299Z,8.43
2023-04-06T04:30:06.734Z,7.93
2023-04-06T04:35:15.156Z,8.35
2023-04-06T04:40:23.196Z,8.40
2023-04-06T04:45:36.092Z,9.00
2023-04-06T04:50:51.863Z,8.38
2023-04-06T04:56:02.966Z,7.68
2023-04-06T05:01:11.494Z,8.18
2023-04-06T05:06:19.263Z,8.13
2023-04-06T05:11:25.249Z,9.02
2023-04-06T05:16:37.900Z,8.25
2023-04-06T05:21:42.474Z,9.13
2023-04-06T05:26:47.488Z,8.45
2023-04-06T05:31:59.431Z,8.65
2023-04-06T05:37:03.755Z,7.43
2023-04-06T05:42:08.394Z,8.93
2023-04-06T05:47:29.427Z,8.68
2023-04-06T05:52:44.127Z,8.55
2023-04-06T05:57:50.932Z,7.38
2023-04-06T06:02:58.144Z,7.80
2023-04-06T06:08:06.356Z,8.93
2023-04-06T06:13:11.302Z,7.78
2023-04-06T06:18:17.409Z,8.65
2023-04-06T06:23:21.579Z,7.57
2023-04-06T06:28:27.387Z,8.38
2023-04-06T06:33:32.991Z,7.33
2023-04-06T06:38:37.171Z,7.40
2023-04-06T06:43:42.654Z,7.25
2023-04-06T06:48:50.649Z,7.50
2023-04-06T06:53:54.806Z,8.00
2023-04-06T06:58:59.265Z,8.52
2023-04-06T07:04:04.763Z,6.32
2023-04-06T07:14:13.376Z,6.82
2023-04-06T07:19:18.847Z,8.25
2023-04-06T07:29:26.965Z,8.27
2023-04-06T07:34:33.087Z,6.90
2023-04-06T07:39:37.205Z,7.13
2023-04-06T07:44:42.025Z,8.67
2023-04-06T07:49:48.698Z,9.18
2023-04-06T07:54:54.099Z,8.20
2023-04-06T07:59:58.115Z,9.32
2023-04-06T08:05:03.772Z,12.25
2023-04-06T08:10:08.329Z,11.68
2023-04-06T08:15:12.999Z,10.55
2023-04-06T08:20:18.676Z,10.45
2023-04-06T08:30:26.582Z,9.43
2023-04-06T08:35:32.326Z,8.77
2023-04-06T08:40:39.288Z,7.88
2023-04-06T08:45:43.672Z,11.00
2023-04-06T08:50:49.447Z,9.82
2023-04-06T08:55:53.631Z,7.85
2023-04-06T09:00:58.365Z,8.93
2023-04-06T09:06:05.347Z,8.73
2023-04-06T09:11:10.296Z,9.25
2023-04-06T09:16:14.402Z,9.27
2023-04-06T09:21:24.484Z,9.80
2023-04-06T09:26:29.888Z,9.65
2023-04-06T09:31:34.637Z,7.68
2023-04-06T09:36:42.258Z,9.73
2023-04-06T09:41:52.610Z,11.07
2023-04-06T09:47:00.899Z,10.00
2023-04-06T09:52:10.801Z,8.52
2023-04-06T09:57:27.428Z,9.40
2023-04-06T10:02:40.256Z,8.68
2023-04-06T10:07:59.385Z,9.48
2023-04-06T10:13:05.958Z,8.70
2023-04-06T10:18:11.224Z,9.35
2023-04-06T10:23:22.531Z,12.25
2023-04-06T10:28:27.655Z,10.48
2023-04-06T10:33:31.735Z,11.48
2023-04-06T10:38:40.682Z,11.32
2023-04-06T10:43:47.539Z,11.65
2023-04-06T10:48:52.885Z,11.73
2023-04-06T10:54:00.454Z,11.85
2023-04-06T10:59:04.947Z,9.57
2023-04-06T11:04:10.920Z,11.20
2023-04-06T11:09:25.986Z,11.35
2023-04-06T11:14:30.184Z,9.20
2023-04-06T11:19:34.613Z,9.68
2023-04-06T11:24:40.001Z,9.93
2023-04-06T11:29:47.021Z,10.30
2023-04-06T11:34:51.262Z,10.10
2023-04-06T11:39:58.225Z,13.15
2023-04-06T11:45:02.623Z,11.82
2023-04-06T11:50:11.206Z,11.40
2023-04-06T11:55:18.614Z,11.52
2023-04-06T12:00:23.799Z,12.15
2023-04-06T12:05:28.302Z,12.73
2023-04-06T12:10:33.864Z,11.80
2023-04-06T12:15:37.871Z,11.40
2023-04-06T12:20:41.932Z,10.45
2023-04-06T12:25:47.714Z,10.27
2023-04-06T12:35:56.558Z,9.25
2023-04-06T12:41:02.081Z,9.95
2023-04-06T12:46:06.408Z,10.38
2023-04-06T12:51:10.486Z,9.85
2023-04-06T12:56:17.973Z,11.18
2023-04-06T13:01:22.377Z,9.98
2023-04-06T13:06:28.653Z,11.88
2023-04-06T13:11:34.756Z,11.13
2023-04-06T13:16:38.849Z,10.93
2023-04-06T13:21:42.897Z,12.25
2023-04-06T13:26:48.608Z,10.13
2023-04-06T13:31:52.672Z,10.45
2023-04-06T13:36:56.671Z,11.20
2023-04-06T13:42:03.879Z,11.88
2023-04-06T13:47:08.302Z,10.32
2023-04-06T13:52:12.541Z,9.45
2023-04-06T13:57:18.163Z,10.98
2023-04-06T14:02:24.013Z,10.80
2023-04-06T14:07:28.317Z,10.35
2023-04-06T14:12:33.819Z,10.43
2023-04-06T14:17:38.029Z,10.32
2023-04-06T14:22:42.710Z,11.35
2023-04-06T14:27:48.274Z,10.93
2023-04-06T14:32:52.407Z,9.75
2023-04-06T14:37:57.882Z,10.95
2023-04-06T14:43:03.294Z,10.68
2023-04-06T14:48:08.282Z,9.18
2023-04-06T14:53:12.605Z,11.57
2023-04-06T14:58:18.098Z,9.93
2023-04-06T15:03:22.423Z,10.57
2023-04-06T15:08:27.090Z,11.02
2023-04-06T15:13:32.673Z,10.30
2023-04-06T15:18:37.182Z,9.82
2023-04-06T15:23:41.508Z,9.57
2023-04-06T15:28:47.118Z,10.38
2023-04-06T15:33:51.157Z,11.35
2023-04-06T15:38:55.573Z,10.75
2023-04-06T15:44:01.157Z,10.38
2023-04-06T15:49:05.810Z,9.52
2023-04-06T15:54:09.718Z,9.95
2023-04-06T15:59:15.493Z,9.52
2023-04-06T16:04:21.078Z,11.50
2023-04-06T16:09:25.034Z,10.82
2023-04-06T16:14:30.402Z,9.50
2023-04-06T16:19:34.470Z,10.02
2023-04-06T16:24:38.962Z,9.63
2023-04-06T16:29:44.294Z,9.40
2023-04-06T16:34:48.212Z,9.88
2023-04-06T16:39:55.549Z,8.52
2023-04-06T16:45:01.167Z,8.57
2023-04-06T16:50:06.559Z,8.10
2023-04-06T16:55:12.465Z,8.65
2023-04-06T17:00:19.357Z,8.38
2023-04-06T17:05:26.585Z,9.27
2023-04-06T17:10:34.455Z,8.32
2023-04-06T17:15:46.829Z,8.35
2023-04-06T17:20:50.932Z,9.20
2023-04-06T17:25:57.542Z,9.23
2023-04-06T17:31:03.238Z,8.88
2023-04-06T17:36:09.918Z,10.07
2023-04-06T17:41:14.833Z,11.38
2023-04-06T17:46:21.428Z,9.77
2023-04-06T17:51:26.549Z,10.52
2023-04-06T17:56:30.880Z,10.97
2023-04-06T18:01:36.489Z,9.57
2023-04-06T18:11:44.680Z,10.05
2023-04-06T18:16:50.097Z,10.23
2023-04-06T18:21:54.023Z,9.40
2023-04-06T18:26:57.975Z,11.02
2023-04-06T18:32:03.456Z,11.07
2023-04-06T18:37:07.574Z,11.00
2023-04-06T18:42:11.816Z,11.27
2023-04-06T18:47:17.375Z,9.77
2023-04-06T18:52:22.776Z,8.55
2023-04-06T18:57:26.723Z,8.80
2023-04-06T19:02:32.367Z,9.05
2023-04-06T19:12:41.660Z,8.10
2023-04-06T19:17:47.939Z,8.60
2023-04-06T19:22:52.261Z,9.50
2023-04-06T19:27:57.717Z,8.73
2023-04-06T19:33:03.688Z,7.68
2023-04-06T19:38:07.976Z,9.23
2023-04-06T19:43:11.946Z,9.57
2023-04-06T19:48:17.380Z,7.88
2023-04-06T19:53:24.560Z,9.32
2023-04-06T19:58:28.663Z,7.60
2023-04-06T20:03:34.227Z,7.35
2023-04-06T20:08:38.330Z,7.60
2023-04-06T20:13:42.292Z,8.55
2023-04-06T20:18:47.621Z,7.82
2023-04-06T20:23:51.828Z,8.30
2023-04-06T20:28:55.871Z,9.68
2023-04-06T20:34:01.702Z,9.80
2023-04-06T20:39:06.056Z,9.27
2023-04-06T20:44:12.883Z,7.72
2023-04-06T20:49:22.180Z,9.30
2023-04-06T20:54:27.558Z,13.10
2023-04-06T20:59:31.512Z,11.35
2023-04-06T21:04:37.368Z,9.95
2023-04-06T21:09:42.456Z,11.27
2023-04-06T21:14:46.898Z,11.20
2023-04-06T21:19:53.324Z,7.53
2023-04-06T21:24:57.382Z,9.90
2023-04-06T21:30:01.428Z,9.18
2023-04-06T21:35:07.827Z,9.27
2023-04-06T21:40:13.920Z,10.88
2023-04-06T21:45:18.064Z,10.10
2023-04-06T21:50:23.540Z,9.77
2023-04-06T21:55:27.457Z,9.40
2023-04-06T22:00:31.496Z,8.75
2023-04-06T22:05:37.653Z,9.93
2023-04-06T22:10:41.696Z,10.63
2023-04-06T22:15:45.823Z,9.00
2023-04-06T22:20:51.499Z,8.30
2023-04-06T22:31:01.954Z,7.75
2023-04-06T22:36:07.796Z,7.80
2023-04-06T22:41:12.055Z,9.50
2023-04-06T22:46:15.977Z,9.43
2023-04-06T22:51:21.747Z,9.20
2023-04-06T22:56:25.835Z,10.43
2023-04-06T23:01:29.967Z,11.82
2023-04-06T23:06:35.445Z,8.40
2023-04-06T23:11:39.270Z,8.13
2023-04-06T23:16:43.397Z,8.27
2023-04-06T23:21:48.759Z,7.95
2023-04-06T23:26:52.831Z,7.70
2023-04-06T23:31:57.008Z,8.77
2023-04-06T23:37:03.218Z,7.95
2023-04-06T23:42:07.317Z,8.82
2023-04-06T23:47:11.932Z,7.43
2023-04-06T23:52:17.355Z,7.82
